createdAt,value
2016-11-29T16:04:31.615Z,31
2016-11-29T16:04:48.471Z,32
2016-11-29T16:05:08.567Z,31
2016-11-29T16:05:24.356Z,29
2016-11-29T16:05:47.184Z,31
2016-11-29T16:06:09.044Z,31
2016-11-29T16:06:30.297Z,31
2016-11-29T16:06:47.015Z,31
2016-11-29T16:07:08.845Z,31
2016-11-29T16:07:21.896Z,31
2016-11-29T16:07:40.637Z,31
2016-11-29T16:07:56.756Z,31
2016-11-29T16:08:09.827Z,31
2016-11-29T16:08:22.987Z,31
2016-11-29T16:08:36.058Z,31
2016-11-29T16:08:49.056Z,31
2016-11-29T16:09:02.274Z,31
2016-11-29T16:09:18.324Z,31
2016-11-29T16:09:37.161Z,31
2016-11-29T16:09:56.194Z,31
2016-11-29T16:10:15.157Z,31
2016-11-29T16:10:33.966Z,29
2016-11-29T16:10:47.118Z,31
2016-11-29T16:11:00.288Z,31
2016-11-29T16:11:19.151Z,31
2016-11-29T16:11:32.195Z,31
2016-11-29T16:11:48.049Z,31
2016-11-29T16:12:04.004Z,31
2016-11-29T16:12:19.963Z,31
2016-11-29T16:12:35.899Z,31
2016-11-29T16:12:51.851Z,31
2016-11-29T16:13:07.691Z,31
2016-11-29T16:13:20.932Z,31
2016-11-29T16:13:39.724Z,31
2016-11-29T16:13:57.563Z,31
2016-11-29T16:14:13.589Z,31
2016-11-29T16:14:32.418Z,31
2016-11-29T16:14:45.375Z,31
2016-11-29T16:14:58.415Z,31
2016-11-29T16:15:11.682Z,31
2016-11-29T16:15:30.405Z,31
2016-11-29T16:15:46.264Z,31
2016-11-29T16:16:10.766Z,31
2016-11-29T16:16:23.721Z,31
2016-11-29T16:16:36.683Z,31
2016-11-29T16:16:49.904Z,31
2016-11-29T16:17:05.770Z,31
2016-11-29T16:17:19.025Z,31
2016-11-29T16:17:32.512Z,31
2016-11-29T16:17:45.518Z,33
2016-11-29T16:17:58.745Z,33
2016-11-29T16:18:14.744Z,31
2016-11-29T16:18:33.477Z,31
2016-11-29T16:18:46.744Z,34
2016-11-29T16:18:59.608Z,33
2016-11-29T16:19:12.554Z,31
2016-11-29T16:19:25.813Z,31
2016-11-29T16:19:44.706Z,31
2016-11-29T16:20:03.372Z,31
2016-11-29T16:20:16.431Z,31
2016-11-29T16:20:29.392Z,31
2016-11-29T16:20:45.420Z,31
2016-11-29T16:21:01.361Z,31
2016-11-29T16:21:17.591Z,31
2016-11-29T16:21:33.559Z,31
2016-11-29T16:21:46.517Z,31
2016-11-29T16:22:05.253Z,33
2016-11-29T16:22:21.266Z,31
2016-11-29T16:22:34.304Z,33
2016-11-29T16:22:47.364Z,32
2016-11-29T16:23:00.408Z,33
2016-11-29T16:23:13.461Z,33
2016-11-29T16:23:29.977Z,33
2016-11-29T16:23:45.838Z,32
2016-11-29T16:23:58.847Z,31
2016-11-29T16:24:14.961Z,31
2016-11-29T16:24:30.828Z,31
2016-11-29T16:24:47.361Z,31
2016-11-29T16:25:00.492Z,31
2016-11-29T16:25:13.357Z,31
2016-11-29T16:25:29.312Z,31
2016-11-29T16:25:45.612Z,31
2016-11-29T16:26:01.655Z,31
2016-11-29T16:26:18.709Z,31
2016-11-29T16:26:37.741Z,31
2016-11-29T16:26:54.682Z,31
2016-11-29T16:27:11.018Z,31
2016-11-29T16:27:30.299Z,31
2016-11-29T16:27:53.262Z,31
2016-11-29T16:28:09.403Z,31
2016-11-29T16:28:25.654Z,29
2016-11-29T16:28:42.251Z,31
2016-11-29T16:29:03.991Z,32
2016-11-29T16:29:23.038Z,31
2016-11-29T16:29:39.279Z,31
2016-11-29T16:29:52.438Z,31
2016-11-29T16:30:08.339Z,31
2016-11-29T16:30:21.733Z,31
2016-11-29T16:30:37.520Z,31
2016-11-29T16:30:51.514Z,31
2016-11-29T16:31:10.339Z,29
2016-11-29T16:31:26.378Z,31
2016-11-29T16:31:45.694Z,31
2016-11-29T16:31:58.672Z,31
2016-11-29T16:32:17.507Z,29
2016-11-29T16:32:33.596Z,31
2016-11-29T16:32:52.832Z,31
2016-11-29T16:33:11.707Z,31
2016-11-29T16:33:27.731Z,31
2016-11-29T16:33:43.877Z,31
2016-11-29T16:33:57.436Z,31
2016-11-29T16:34:16.437Z,31
2016-11-29T16:34:29.856Z,31
2016-11-29T16:34:46.639Z,31
2016-11-29T16:35:03.448Z,31
2016-11-29T16:35:22.600Z,31
2016-11-29T16:35:41.804Z,31
2016-11-29T16:35:57.671Z,31
2016-11-29T16:36:10.535Z,31
2016-11-29T16:36:23.733Z,31
2016-11-29T16:36:36.997Z,31
2016-11-29T16:36:53.118Z,31
2016-11-29T16:37:14.800Z,31
2016-11-29T16:37:28.397Z,31
2016-11-29T16:37:47.188Z,31
2016-11-29T16:38:00.379Z,31
2016-11-29T16:38:13.584Z,31
2016-11-29T16:38:26.565Z,31
2016-11-29T16:38:42.594Z,31
2016-11-29T16:38:58.524Z,31
2016-11-29T16:39:11.675Z,31
2016-11-29T16:39:24.740Z,31
2016-11-29T16:39:40.742Z,31
2016-11-29T16:39:56.722Z,31
2016-11-29T16:40:15.537Z,31
2016-11-29T16:40:31.625Z,31
2016-11-29T16:40:50.429Z,31
2016-11-29T16:41:09.256Z,31
2016-11-29T16:41:25.142Z,31
2016-11-29T16:41:41.291Z,31
2016-11-29T16:41:57.334Z,31
2016-11-29T16:42:13.367Z,32
2016-11-29T16:42:29.213Z,31
2016-11-29T16:42:45.182Z,32
2016-11-29T16:42:58.313Z,31
2016-11-29T16:43:11.374Z,32
2016-11-29T16:43:27.178Z,31
2016-11-29T16:43:43.215Z,32
2016-11-29T16:44:02.070Z,31
2016-11-29T16:44:15.252Z,24
2016-11-29T16:44:36.869Z,33
2016-11-29T16:44:55.719Z,31
2016-11-29T16:45:08.792Z,31
2016-11-29T16:45:27.591Z,29
2016-11-29T16:45:43.537Z,29
2016-11-29T16:45:56.500Z,4
2016-11-29T16:46:12.593Z,4
2016-11-29T16:46:25.635Z,4
2016-11-29T16:46:41.468Z,4
2016-11-29T16:46:54.500Z,4
2016-11-29T16:47:10.354Z,29
2016-11-29T16:47:26.404Z,29
2016-11-29T16:47:39.359Z,29
2016-11-29T16:47:58.358Z,29
2016-11-29T16:48:17.139Z,29
2016-11-29T16:48:30.339Z,29
2016-11-29T16:48:46.791Z,29
2016-11-29T16:49:02.816Z,29
2016-11-29T16:49:24.466Z,29
2016-11-29T16:49:46.274Z,5
2016-11-29T16:49:59.232Z,5
2016-11-29T16:50:18.048Z,29
2016-11-29T16:50:33.983Z,29
2016-11-29T16:50:47.199Z,29
2016-11-29T16:51:06.873Z,29
2016-11-29T16:51:20.018Z,29
2016-11-29T16:51:32.991Z,29
2016-11-29T16:51:45.928Z,29
2016-11-29T16:51:59.150Z,29
2016-11-29T16:52:12.210Z,15
2016-11-29T16:52:25.200Z,15
2016-11-29T16:52:41.232Z,15
2016-11-29T16:52:54.223Z,15
2016-11-29T16:53:10.255Z,29
2016-11-29T16:53:23.380Z,29
2016-11-29T16:53:42.310Z,29
2016-11-29T16:54:03.893Z,15
2016-11-29T16:54:22.895Z,29
2016-11-29T16:54:41.547Z,15
2016-11-29T16:54:57.600Z,29
2016-11-29T16:55:13.516Z,15
2016-11-29T16:55:32.328Z,29
2016-11-29T16:55:48.163Z,15
2016-11-29T16:56:01.423Z,15
2016-11-29T16:56:20.081Z,15
2016-11-29T16:56:41.988Z,15
2016-11-29T16:57:00.744Z,15
2016-11-29T16:57:13.824Z,15
2016-11-29T16:57:35.570Z,29
2016-11-29T16:57:58.068Z,15
2016-11-29T16:58:13.865Z,15
2016-11-29T16:58:30.011Z,15
2016-11-29T16:58:45.887Z,15
2016-11-29T16:59:01.639Z,15
2016-11-29T16:59:20.548Z,15
2016-11-29T16:59:39.533Z,15
2016-11-29T16:59:58.297Z,15
2016-11-29T17:00:17.244Z,15
2016-11-29T17:00:33.048Z,15
2016-11-29T17:00:48.988Z,15
2016-11-29T17:01:02.213Z,15
2016-11-29T17:01:18.165Z,15
2016-11-29T17:01:31.327Z,15
2016-11-29T17:01:47.327Z,15
2016-11-29T17:02:03.191Z,15
2016-11-29T17:02:21.922Z,15
2016-11-29T17:02:35.090Z,15
2016-11-29T17:02:51.117Z,15
2016-11-29T17:03:07.386Z,15
2016-11-29T17:03:23.386Z,15
2016-11-29T17:03:36.378Z,15
2016-11-29T17:03:55.250Z,15
2016-11-29T17:04:08.312Z,15
2016-11-29T17:04:24.251Z,15
2016-11-29T17:04:37.418Z,15
2016-11-29T17:04:53.262Z,15
2016-11-29T17:05:07.775Z,15
2016-11-29T17:05:29.464Z,15
2016-11-29T17:05:42.587Z,15
2016-11-29T17:05:58.448Z,15
2016-11-29T17:06:17.308Z,15
2016-11-29T17:06:36.346Z,15
2016-11-29T17:06:52.189Z,15
2016-11-29T17:07:05.245Z,15
2016-11-29T17:07:21.091Z,15
2016-11-29T17:07:37.429Z,15
2016-11-29T17:07:53.219Z,15
2016-11-29T17:08:06.271Z,15
2016-11-29T17:08:22.126Z,15
2016-11-29T17:08:38.075Z,15
2016-11-29T17:08:51.157Z,15
2016-11-29T17:09:07.299Z,15
2016-11-29T17:09:26.054Z,15
2016-11-29T17:09:45.012Z,15
2016-11-29T17:09:58.053Z,15
2016-11-29T17:10:14.103Z,15
2016-11-29T17:10:32.904Z,15
2016-11-29T17:10:48.865Z,15
2016-11-29T17:11:01.812Z,15
2016-11-29T17:11:15.874Z,15
2016-11-29T17:11:37.677Z,15
2016-11-29T17:11:53.520Z,15
2016-11-29T17:12:09.564Z,15
2016-11-29T17:12:28.771Z,15
2016-11-29T17:12:44.834Z,15
2016-11-29T17:13:00.760Z,15
2016-11-29T17:13:13.720Z,15
2016-11-29T17:13:30.272Z,15
2016-11-29T17:13:51.894Z,15
2016-11-29T17:14:08.071Z,15
2016-11-29T17:14:21.381Z,15
2016-11-29T17:14:34.421Z,15
2016-11-29T17:14:47.610Z,15
2016-11-29T17:15:00.558Z,15
2016-11-29T17:15:13.642Z,15
2016-11-29T17:15:26.583Z,15
2016-11-29T17:15:39.529Z,15
2016-11-29T17:15:55.469Z,15
2016-11-29T17:16:11.430Z,15
2016-11-29T17:16:24.661Z,15
2016-11-29T17:16:43.439Z,15
2016-11-29T17:16:56.586Z,15
2016-11-29T17:17:09.556Z,15
2016-11-29T17:17:22.527Z,15
2016-11-29T17:17:41.347Z,15
2016-11-29T17:18:03.223Z,15
2016-11-29T17:18:16.276Z,15
2016-11-29T17:18:32.298Z,15
2016-11-29T17:18:48.126Z,15
2016-11-29T17:19:01.521Z,15
2016-11-29T17:19:14.475Z,15
2016-11-29T17:19:27.622Z,15
2016-11-29T17:19:46.271Z,15
2016-11-29T17:20:02.369Z,15
2016-11-29T17:20:18.158Z,15
2016-11-29T17:20:31.312Z,15
2016-11-29T17:20:50.125Z,15
2016-11-29T17:21:09.178Z,15
2016-11-29T17:21:25.050Z,17
2016-11-29T17:21:43.656Z,5
2016-11-29T17:22:01.647Z,17
2016-11-29T17:22:17.475Z,5
2016-11-29T17:22:30.958Z,4
2016-11-29T17:22:43.971Z,4
2016-11-29T17:22:59.977Z,4
2016-11-29T17:23:15.737Z,4
2016-11-29T17:23:34.440Z,4
2016-11-29T17:23:47.542Z,4
2016-11-29T17:24:03.473Z,4
2016-11-29T17:24:16.317Z,5
2016-11-29T17:24:32.316Z,5
2016-11-29T17:24:48.359Z,4
2016-11-29T17:25:04.244Z,4
2016-11-29T17:25:20.241Z,4
2016-11-29T17:25:33.096Z,4
2016-11-29T17:25:49.028Z,4
2016-11-29T17:26:02.132Z,4
2016-11-29T17:26:17.970Z,4
2016-11-29T17:26:33.891Z,4
2016-11-29T17:26:46.942Z,4
2016-11-29T17:27:02.859Z,4
2016-11-29T17:27:18.681Z,4
2016-11-29T17:27:31.895Z,4
2016-11-29T17:27:48.922Z,4
2016-11-29T17:28:01.879Z,4
2016-11-29T17:28:17.888Z,4
2016-11-29T17:28:30.915Z,4
2016-11-29T17:28:49.853Z,4
2016-11-29T17:29:05.649Z,4
2016-11-29T17:29:21.569Z,4
2016-11-29T17:29:37.601Z,4
2016-11-29T17:30:01.740Z,4
2016-11-29T17:30:14.793Z,4
2016-11-29T17:30:30.623Z,4
2016-11-29T17:30:46.615Z,4
2016-11-29T17:30:59.552Z,4
2016-11-29T17:31:15.246Z,4
2016-11-29T17:31:28.364Z,4
2016-11-29T17:31:44.179Z,4
2016-11-29T17:31:57.203Z,4
2016-11-29T17:32:10.148Z,4
2016-11-29T17:32:23.363Z,4
2016-11-29T17:32:36.295Z,4
2016-11-29T17:32:52.128Z,4
2016-11-29T17:33:08.150Z,4
2016-11-29T17:33:27.076Z,4
2016-11-29T17:33:42.936Z,4
2016-11-29T17:33:55.948Z,4
2016-11-29T17:34:11.868Z,4
2016-11-29T17:34:27.612Z,4
2016-11-29T17:34:40.621Z,4
2016-11-29T17:34:56.528Z,4
2016-11-29T17:35:09.654Z,4
2016-11-29T17:35:25.667Z,5
2016-11-29T17:35:41.504Z,4
2016-11-29T17:35:57.317Z,4
2016-11-29T17:36:13.239Z,4
2016-11-29T17:36:26.194Z,4
2016-11-29T17:36:42.235Z,4
2016-11-29T17:36:58.178Z,4
2016-11-29T17:37:11.105Z,4
2016-11-29T17:37:27.060Z,4
2016-11-29T17:37:42.871Z,4
2016-11-29T17:37:55.879Z,4
2016-11-29T17:38:11.715Z,4
2016-11-29T17:38:24.919Z,4
2016-11-29T17:38:40.947Z,4
2016-11-29T17:38:59.544Z,4
2016-11-29T17:39:12.686Z,4
2016-11-29T17:39:28.723Z,4
2016-11-29T17:39:44.627Z,4
2016-11-29T17:40:06.250Z,4
2016-11-29T17:40:19.289Z,4
2016-11-29T17:40:32.321Z,4
2016-11-29T17:40:48.327Z,4
2016-11-29T17:41:01.535Z,4
2016-11-29T17:41:17.274Z,4
2016-11-29T17:41:33.291Z,4
2016-11-29T17:41:49.029Z,4
2016-11-29T17:42:07.933Z,4
2016-11-29T17:42:23.959Z,4
2016-11-29T17:42:39.976Z,4
2016-11-29T17:42:52.819Z,4
2016-11-29T17:43:11.634Z,4
2016-11-29T17:43:24.755Z,4
2016-11-29T17:43:40.679Z,4
2016-11-29T17:43:56.491Z,4
2016-11-29T17:44:12.484Z,4
2016-11-29T17:44:28.234Z,4
2016-11-29T17:44:41.436Z,4
2016-11-29T17:45:02.977Z,4
2016-11-29T17:45:18.979Z,4
2016-11-29T17:45:32.010Z,4
2016-11-29T17:45:45.244Z,4
2016-11-29T17:46:00.991Z,4
2016-11-29T17:46:13.949Z,4
2016-11-29T17:46:26.964Z,4
2016-11-29T17:46:39.843Z,4
2016-11-29T17:46:58.121Z,4
2016-11-29T17:47:25.562Z,4
2016-11-29T17:47:45.844Z,4
2016-11-29T17:48:00.887Z,4
2016-11-29T17:48:16.811Z,4
2016-11-29T17:48:29.886Z,4
2016-11-29T17:48:43.673Z,4
2016-11-29T17:49:04.549Z,4
2016-11-29T17:49:24.449Z,4
2016-11-29T17:49:40.479Z,4
2016-11-29T17:49:56.323Z,4
2016-11-29T17:50:12.854Z,4
2016-11-29T17:50:31.480Z,4
2016-11-29T17:50:44.500Z,4
2016-11-29T17:51:00.423Z,4
2016-11-29T17:51:13.630Z,4
2016-11-29T17:51:29.454Z,4
2016-11-29T17:51:42.468Z,4
2016-11-29T17:51:55.509Z,4
2016-11-29T17:52:08.529Z,4
2016-11-29T17:52:21.628Z,4
2016-11-29T17:52:37.475Z,4
2016-11-29T17:52:53.334Z,4
2016-11-29T17:53:09.337Z,4
2016-11-29T17:53:25.299Z,4
2016-11-29T17:53:41.351Z,4
2016-11-29T17:53:54.283Z,4
2016-11-29T17:54:10.313Z,4
2016-11-29T17:54:23.148Z,4
2016-11-29T17:54:39.107Z,17
2016-11-29T17:54:52.076Z,29
2016-11-29T17:55:07.891Z,8
2016-11-29T17:55:23.810Z,29
2016-11-29T17:55:42.616Z,8
2016-11-29T17:55:55.676Z,29
2016-11-29T17:56:08.836Z,29
2016-11-29T17:56:27.574Z,29
2016-11-29T17:56:49.327Z,29
2016-11-29T17:57:10.982Z,29
2016-11-29T17:57:24.224Z,29
2016-11-29T17:57:40.946Z,29
2016-11-29T17:57:54.087Z,29
2016-11-29T17:58:07.058Z,29
2016-11-29T17:58:25.912Z,8
2016-11-29T17:58:41.857Z,29
2016-11-29T17:58:55.071Z,29
2016-11-29T17:59:14.011Z,29
2016-11-29T17:59:26.899Z,29
2016-11-29T17:59:42.818Z,8
2016-11-29T17:59:58.752Z,29
2016-11-29T18:00:14.772Z,29
2016-11-29T18:00:27.938Z,29
2016-11-29T18:00:40.912Z,29
2016-11-29T18:00:59.659Z,29
2016-11-29T18:01:12.711Z,29
2016-11-29T18:01:25.778Z,29
2016-11-29T18:01:38.907Z,29
2016-11-29T18:01:52.083Z,29
2016-11-29T18:02:13.795Z,29
2016-11-29T18:02:32.634Z,29
2016-11-29T18:02:48.492Z,29
2016-11-29T18:03:04.509Z,29
2016-11-29T18:03:17.469Z,29
2016-11-29T18:03:30.702Z,29
2016-11-29T18:03:46.429Z,29
2016-11-29T18:03:59.400Z,29
2016-11-29T18:04:12.556Z,29
2016-11-29T18:04:28.456Z,29
2016-11-29T18:04:50.079Z,29
2016-11-29T18:05:06.017Z,29
2016-11-29T18:05:22.055Z,29
2016-11-29T18:05:35.004Z,29
2016-11-29T18:05:51.055Z,29
2016-11-29T18:06:04.301Z,29
2016-11-29T18:06:17.199Z,29
2016-11-29T18:06:33.279Z,29
2016-11-29T18:06:54.848Z,29
2016-11-29T18:07:10.896Z,29
2016-11-29T18:07:29.716Z,29
2016-11-29T18:07:42.848Z,29
2016-11-29T18:07:58.782Z,29
2016-11-29T18:08:14.921Z,29
2016-11-29T18:08:27.769Z,8
2016-11-29T18:08:43.599Z,8
2016-11-29T18:08:59.605Z,8
2016-11-29T18:09:15.646Z,29
2016-11-29T18:09:28.501Z,29
2016-11-29T18:09:41.736Z,29
2016-11-29T18:09:54.580Z,29
2016-11-29T18:10:07.736Z,29
2016-11-29T18:10:20.790Z,29
2016-11-29T18:10:39.614Z,29
2016-11-29T18:10:58.460Z,29
2016-11-29T18:11:17.213Z,29
2016-11-29T18:11:33.079Z,29
2016-11-29T18:11:49.041Z,29
2016-11-29T18:12:02.267Z,29
2016-11-29T18:12:15.329Z,29
2016-11-29T18:12:31.283Z,29
2016-11-29T18:12:44.352Z,29
2016-11-29T18:13:00.320Z,29
2016-11-29T18:13:16.257Z,29
2016-11-29T18:13:32.098Z,29
2016-11-29T18:13:48.143Z,29
2016-11-29T18:14:04.162Z,29
2016-11-29T18:14:20.079Z,29
2016-11-29T18:14:36.139Z,29
2016-11-29T18:14:49.207Z,29
2016-11-29T18:15:05.159Z,29
2016-11-29T18:15:21.106Z,29
2016-11-29T18:15:37.004Z,29
2016-11-29T18:15:50.066Z,29
2016-11-29T18:16:03.016Z,29
2016-11-29T18:16:19.062Z,29
2016-11-29T18:16:34.932Z,29
2016-11-29T18:16:53.784Z,29
2016-11-29T18:17:12.502Z,29
2016-11-29T18:17:25.670Z,29
2016-11-29T18:17:41.421Z,29
2016-11-29T18:17:54.652Z,29
2016-11-29T18:18:13.302Z,29
2016-11-29T18:18:29.346Z,29
2016-11-29T18:18:42.395Z,29
2016-11-29T18:18:58.450Z,29
2016-11-29T18:19:11.513Z,29
2016-11-29T18:19:27.381Z,29
2016-11-29T18:19:43.230Z,29
2016-11-29T18:20:01.975Z,29
2016-11-29T18:20:20.856Z,29
2016-11-29T18:20:33.938Z,29
2016-11-29T18:20:47.002Z,29
2016-11-29T18:21:00.070Z,29
2016-11-29T18:21:16.011Z,29
2016-11-29T18:21:34.828Z,29
2016-11-29T18:21:50.685Z,29
2016-11-29T18:22:06.743Z,29
2016-11-29T18:22:22.513Z,29
2016-11-29T18:22:35.577Z,29
2016-11-29T18:22:54.398Z,29
2016-11-29T18:23:10.368Z,29
2016-11-29T18:23:23.418Z,29
2016-11-29T18:23:42.271Z,29
2016-11-29T18:23:55.344Z,29
2016-11-29T18:24:11.114Z,29
2016-11-29T18:24:27.151Z,29
2016-11-29T18:24:40.635Z,29
2016-11-29T18:24:56.658Z,29
2016-11-29T18:25:09.815Z,29
2016-11-29T18:25:22.875Z,29
2016-11-29T18:25:38.917Z,29
2016-11-29T18:25:51.887Z,29
2016-11-29T18:26:13.646Z,26
2016-11-29T18:26:29.674Z,5
2016-11-29T18:26:48.391Z,5
2016-11-29T18:27:04.358Z,4
2016-11-29T18:27:20.196Z,4
2016-11-29T18:27:37.145Z,4
2016-11-29T18:27:53.686Z,4
2016-11-29T18:28:12.572Z,4
2016-11-29T18:28:25.522Z,5
2016-11-29T18:28:44.350Z,4
2016-11-29T18:29:00.288Z,4
2016-11-29T18:29:16.240Z,5
2016-11-29T18:29:29.195Z,5
2016-11-29T18:29:42.182Z,17
2016-11-29T18:29:55.331Z,17
2016-11-29T18:30:14.468Z,17
2016-11-29T18:30:30.314Z,17
2016-11-29T18:30:49.086Z,29
2016-11-29T18:31:02.324Z,29
2016-11-29T18:31:18.193Z,29
2016-11-29T18:31:34.329Z,29
2016-11-29T18:31:50.090Z,29
2016-11-29T18:32:05.933Z,29
2016-11-29T18:32:24.907Z,29
2016-11-29T18:32:40.964Z,29
2016-11-29T18:32:54.110Z,29
2016-11-29T18:33:15.951Z,29
2016-11-29T18:33:31.744Z,29
2016-11-29T18:33:47.717Z,29
2016-11-29T18:34:03.657Z,29
2016-11-29T18:34:19.703Z,29
2016-11-29T18:34:32.608Z,29
2016-11-29T18:34:51.573Z,29
2016-11-29T18:35:07.455Z,29
2016-11-29T18:35:23.471Z,29
2016-11-29T18:35:42.316Z,29
2016-11-29T18:36:01.245Z,29
2016-11-29T18:36:20.104Z,29
2016-11-29T18:36:33.052Z,29
2016-11-29T18:36:49.104Z,29
2016-11-29T18:37:04.987Z,29
2016-11-29T18:37:18.264Z,29
2016-11-29T18:37:34.240Z,29
2016-11-29T18:37:50.219Z,29
2016-11-29T18:38:06.200Z,29
2016-11-29T18:38:22.406Z,29
2016-11-29T18:38:38.254Z,29
2016-11-29T18:38:54.216Z,29
2016-11-29T18:39:10.456Z,29
2016-11-29T18:39:26.410Z,29
2016-11-29T18:39:39.367Z,8
2016-11-29T18:39:52.772Z,8
2016-11-29T18:40:06.937Z,29
2016-11-29T18:40:21.843Z,29
2016-11-29T18:40:39.741Z,29
2016-11-29T18:40:53.568Z,15
2016-11-29T18:41:12.281Z,29
2016-11-29T18:41:35.225Z,29
2016-11-29T18:41:51.408Z,15
2016-11-29T18:42:07.687Z,29
2016-11-29T18:42:28.410Z,29
2016-11-29T18:42:48.508Z,29
2016-11-29T18:43:08.772Z,15
2016-11-29T18:43:28.668Z,29
2016-11-29T18:43:48.323Z,15
2016-11-29T18:44:07.007Z,29
2016-11-29T18:44:23.069Z,15
2016-11-29T18:44:44.810Z,29
2016-11-29T18:44:57.965Z,29
2016-11-29T18:45:16.704Z,29
2016-11-29T18:45:35.411Z,29
2016-11-29T18:45:51.468Z,29
2016-11-29T18:46:07.392Z,29
2016-11-29T18:46:20.697Z,29
2016-11-29T18:46:36.810Z,29
2016-11-29T18:46:53.579Z,29
2016-11-29T18:47:07.008Z,29
2016-11-29T18:47:23.015Z,29
2016-11-29T18:47:41.235Z,29
2016-11-29T18:47:58.063Z,29
2016-11-29T18:48:26.068Z,29
2016-11-29T18:48:42.168Z,29
2016-11-29T18:48:58.406Z,29
2016-11-29T18:49:17.901Z,29
2016-11-29T18:49:34.954Z,29
2016-11-29T18:49:57.227Z,29
2016-11-29T18:50:13.685Z,15
2016-11-29T18:50:28.795Z,29
2016-11-29T18:50:53.427Z,29
2016-11-29T18:51:08.666Z,15
2016-11-29T18:51:27.970Z,15
2016-11-29T18:51:45.732Z,29
2016-11-29T18:52:05.283Z,29
2016-11-29T18:52:24.123Z,29
2016-11-29T18:52:42.846Z,29
2016-11-29T18:53:01.636Z,15
2016-11-29T18:53:17.530Z,29
2016-11-29T18:53:36.347Z,29
2016-11-29T18:53:49.448Z,15
2016-11-29T18:54:02.520Z,29
2016-11-29T18:54:18.358Z,29
2016-11-29T18:54:37.407Z,29
2016-11-29T18:54:50.890Z,29
2016-11-29T18:55:03.903Z,15
2016-11-29T18:55:19.774Z,29
2016-11-29T18:55:32.822Z,29
2016-11-29T18:55:48.675Z,15
2016-11-29T18:56:07.613Z,29
2016-11-29T18:56:23.771Z,29
2016-11-29T18:56:36.998Z,29
2016-11-29T18:56:52.869Z,29
2016-11-29T18:57:12.238Z,29
2016-11-29T18:57:28.413Z,29
2016-11-29T18:57:47.662Z,14
2016-11-29T18:58:03.775Z,14
2016-11-29T18:58:22.601Z,14
2016-11-29T18:58:41.758Z,14
2016-11-29T18:59:04.360Z,14
2016-11-29T18:59:22.798Z,14
2016-11-29T18:59:46.408Z,14
2016-11-29T19:00:11.589Z,16
2016-11-29T19:00:33.491Z,14
2016-11-29T19:00:52.541Z,16
2016-11-29T19:01:11.688Z,14
2016-11-29T19:01:25.893Z,14
2016-11-29T19:01:42.118Z,14
2016-11-29T19:01:58.676Z,14
2016-11-29T19:02:18.106Z,14
2016-11-29T19:02:34.908Z,14
2016-11-29T19:02:53.544Z,14
2016-11-29T19:03:16.817Z,14
2016-11-29T19:03:49.213Z,14
2016-11-29T19:04:15.783Z,14
2016-11-29T19:04:29.806Z,14
2016-11-29T19:04:45.667Z,14
2016-11-29T19:05:05.974Z,14
2016-11-29T19:05:22.599Z,14
2016-11-29T19:05:39.190Z,14
2016-11-29T19:06:06.439Z,14
